sensor_id;sensor_type;location;lat;lon;timestamp;temperature;humidity
6930;DHT22;3504;52.616;13.238;2023-12-20T00:03:12;7.24;92.11
6930;DHT22;3504;52.616;13.238;2023-12-20T00:08:13;7.24;92.08
6930;DHT22;3504;52.616;13.238;2023-12-20T00:13:14;7.26;92.01
6930;DHT22;3504;52.616;13.238;2023-12-20T00:18:14;7.24;92.00
6930;DHT22;3504;52.616;13.238;2023-12-20T00:23:15;7.23;91.94
6930;DHT22;3504;52.616;13.238;2023-12-20T00:28:15;7.22;92.03
6930;DHT22;3504;52.616;13.238;2023-12-20T00:33:16;7.26;92.14
6930;DHT22;3504;52.616;13.238;2023-12-20T00:38:16;7.20;92.10
6930;DHT22;3504;52.616;13.238;2023-12-20T00:43:17;7.24;92.01
6930;DHT22;3504;52.616;13.238;2023-12-20T00:48:17;7.23;92.04
6930;DHT22;3504;52.616;13.238;2023-12-20T00:53:18;7.23;92.10
6930;DHT22;3504;52.616;13.238;2023-12-20T00:58:18;7.22;92.06
6930;DHT22;3504;52.616;13.238;2023-12-20T01:03:19;7.24;92.11
6930;DHT22;3504;52.616;13.238;2023-12-20T01:08:19;7.23;92.17
6930;DHT22;3504;52.616;13.238;2023-12-20T01:13:20;7.24;92.14
6930;DHT22;3504;52.616;13.238;2023-12-20T01:18:20;7.26;91.95
6930;DHT22;3504;52.616;13.238;2023-12-20T01:23:21;7.24;92.07
6930;DHT22;3504;52.616;13.238;2023-12-20T01:28:21;7.23;92.13
6930;DHT22;3504;52.616;13.238;2023-12-20T01:33:22;7.22;92.21
6930;DHT22;3504;52.616;13.238;2023-12-20T01:38:23;7.20;92.12
6930;DHT22;3504;52.616;13.238;2023-12-20T01:43:24;7.20;92.11
6930;DHT22;3504;52.616;13.238;2023-12-20T01:48:25;7.22;91.73
6930;DHT22;3504;52.616;13.238;2023-12-20T01:53:31;7.19;91.72
6930;DHT22;3504;52.616;13.238;2023-12-20T01:58:33;7.18;91.51
6930;DHT22;3504;52.616;13.238;2023-12-20T02:03:42;7.13;91.10
6930;DHT22;3504;52.616;13.238;2023-12-20T02:08:43;7.13;91.07
6930;DHT22;3504;52.616;13.238;2023-12-20T02:13:44;7.13;90.91
6930;DHT22;3504;52.616;13.238;2023-12-20T02:18:44;7.09;90.67
6930;DHT22;3504;52.616;13.238;2023-12-20T02:23:45;7.01;90.64
6930;DHT22;3504;52.616;13.238;2023-12-20T02:28:46;6.99;90.65
6930;DHT22;3504;52.616;13.238;2023-12-20T02:33:47;6.91;90.85
6930;DHT22;3504;52.616;13.238;2023-12-20T02:38:48;6.88;90.87
6930;DHT22;3504;52.616;13.238;2023-12-20T02:43:55;6.84;90.68
6930;DHT22;3504;52.616;13.238;2023-12-20T02:48:56;6.85;90.65
6930;DHT22;3504;52.616;13.238;2023-12-20T02:53:58;6.77;90.77
6930;DHT22;3504;52.616;13.238;2023-12-20T02:58:59;6.77;91.09
6930;DHT22;3504;52.616;13.238;2023-12-20T03:04:01;6.72;90.99
6930;DHT22;3504;52.616;13.238;2023-12-20T03:09:01;6.64;90.75
6930;DHT22;3504;52.616;13.238;2023-12-20T03:14:02;6.64;90.87
6930;DHT22;3504;52.616;13.238;2023-12-20T03:19:03;6.63;90.73
6930;DHT22;3504;52.616;13.238;2023-12-20T03:24:04;6.61;90.62
6930;DHT22;3504;52.616;13.238;2023-12-20T03:29:04;6.55;90.69
6930;DHT22;3504;52.616;13.238;2023-12-20T03:34:05;6.58;90.78
6930;DHT22;3504;52.616;13.238;2023-12-20T03:39:05;6.60;90.72
6930;DHT22;3504;52.616;13.238;2023-12-20T03:44:07;6.61;90.76
6930;DHT22;3504;52.616;13.238;2023-12-20T03:49:08;6.57;90.76
6930;DHT22;3504;52.616;13.238;2023-12-20T03:54:08;6.57;90.99
6930;DHT22;3504;52.616;13.238;2023-12-20T03:59:09;6.61;91.04
6930;DHT22;3504;52.616;13.238;2023-12-20T04:04:11;6.60;91.08
6930;DHT22;3504;52.616;13.238;2023-12-20T04:09:13;6.61;91.05
6930;DHT22;3504;52.616;13.238;2023-12-20T04:14:15;6.63;90.69
6930;DHT22;3504;52.616;13.238;2023-12-20T04:19:16;6.48;90.30
6930;DHT22;3504;52.616;13.238;2023-12-20T04:24:17;6.48;90.51
6930;DHT22;3504;52.616;13.238;2023-12-20T04:29:18;6.38;89.98
6930;DHT22;3504;52.616;13.238;2023-12-20T04:34:19;6.30;90.05
6930;DHT22;3504;52.616;13.238;2023-12-20T04:39:20;6.26;89.91
6930;DHT22;3504;52.616;13.238;2023-12-20T04:44:21;6.17;89.83
6930;DHT22;3504;52.616;13.238;2023-12-20T04:49:21;6.07;89.51
6930;DHT22;3504;52.616;13.238;2023-12-20T04:54:22;5.99;89.87
6930;DHT22;3504;52.616;13.238;2023-12-20T04:59:23;5.96;90.13
6930;DHT22;3504;52.616;13.238;2023-12-20T05:04:24;5.96;89.99
6930;DHT22;3504;52.616;13.238;2023-12-20T05:09:25;5.89;89.55
6930;DHT22;3504;52.616;13.238;2023-12-20T05:14:25;5.74;89.53
6930;DHT22;3504;52.616;13.238;2023-12-20T05:19:26;5.72;89.78
6930;DHT22;3504;52.616;13.238;2023-12-20T05:24:27;5.61;89.63
6930;DHT22;3504;52.616;13.238;2023-12-20T05:29:28;5.55;89.71
6930;DHT22;3504;52.616;13.238;2023-12-20T05:34:29;5.48;89.46
6930;DHT22;3504;52.616;13.238;2023-12-20T05:39:30;5.44;89.23
6930;DHT22;3504;52.616;13.238;2023-12-20T05:44:31;5.34;89.16
6930;DHT22;3504;52.616;13.238;2023-12-20T05:49:32;5.31;89.25
6930;DHT22;3504;52.616;13.238;2023-12-20T05:54:32;5.27;89.60
6930;DHT22;3504;52.616;13.238;2023-12-20T05:59:33;5.24;89.87
6930;DHT22;3504;52.616;13.238;2023-12-20T06:04:33;5.24;89.93
6930;DHT22;3504;52.616;13.238;2023-12-20T06:09:34;5.21;89.70
6930;DHT22;3504;52.616;13.238;2023-12-20T06:14:35;5.20;89.79
6930;DHT22;3504;52.616;13.238;2023-12-20T06:19:36;5.18;89.75
6930;DHT22;3504;52.616;13.238;2023-12-20T06:24:36;5.24;89.84
6930;DHT22;3504;52.616;13.238;2023-12-20T06:29:37;5.20;89.76
6930;DHT22;3504;52.616;13.238;2023-12-20T06:34:37;5.21;89.80
6930;DHT22;3504;52.616;13.238;2023-12-20T06:39:38;5.18;89.90
6930;DHT22;3504;52.616;13.238;2023-12-20T06:44:39;5.23;90.13
6930;DHT22;3504;52.616;13.238;2023-12-20T06:49:40;5.24;90.04
6930;DHT22;3504;52.616;13.238;2023-12-20T06:54:40;5.27;90.20
6930;DHT22;3504;52.616;13.238;2023-12-20T06:59:41;5.25;90.20
6930;DHT22;3504;52.616;13.238;2023-12-20T07:04:42;5.30;90.41
6930;DHT22;3504;52.616;13.238;2023-12-20T07:09:42;5.31;90.49
6930;DHT22;3504;52.616;13.238;2023-12-20T07:14:43;5.32;90.54
6930;DHT22;3504;52.616;13.238;2023-12-20T07:19:43;5.35;90.46
6930;DHT22;3504;52.616;13.238;2023-12-20T07:24:44;5.38;90.50
6930;DHT22;3504;52.616;13.238;2023-12-20T07:29:44;5.37;90.53
6930;DHT22;3504;52.616;13.238;2023-12-20T07:34:45;5.39;90.45
6930;DHT22;3504;52.616;13.238;2023-12-20T07:39:45;5.39;90.33
6930;DHT22;3504;52.616;13.238;2023-12-20T07:44:46;5.41;90.42
6930;DHT22;3504;52.616;13.238;2023-12-20T07:49:51;5.44;90.23
6930;DHT22;3504;52.616;13.238;2023-12-20T07:54:52;5.44;90.16
6930;DHT22;3504;52.616;13.238;2023-12-20T07:59:52;5.48;90.22
6930;DHT22;3504;52.616;13.238;2023-12-20T08:04:53;5.49;89.93
6930;DHT22;3504;52.616;13.238;2023-12-20T08:09:53;5.48;89.88
6930;DHT22;3504;52.616;13.238;2023-12-20T08:14:55;5.52;89.87
6930;DHT22;3504;52.616;13.238;2023-12-20T08:19:57;5.52;89.57
6930;DHT22;3504;52.616;13.238;2023-12-20T08:24:57;5.54;89.66
6930;DHT22;3504;52.616;13.238;2023-12-20T08:29:58;5.55;89.55
6930;DHT22;3504;52.616;13.238;2023-12-20T08:34:58;5.58;89.68
6930;DHT22;3504;52.616;13.238;2023-12-20T08:39:59;5.62;89.65
6930;DHT22;3504;52.616;13.238;2023-12-20T08:44:59;5.71;89.39
6930;DHT22;3504;52.616;13.238;2023-12-20T08:50:00;5.78;89.27
6930;DHT22;3504;52.616;13.238;2023-12-20T08:55:02;5.81;88.72
6930;DHT22;3504;52.616;13.238;2023-12-20T09:00:03;5.83;88.68
6930;DHT22;3504;52.616;13.238;2023-12-20T09:05:03;6.00;88.83
6930;DHT22;3504;52.616;13.238;2023-12-20T09:10:04;6.26;87.64
6930;DHT22;3504;52.616;13.238;2023-12-20T09:15:05;6.26;87.26
6930;DHT22;3504;52.616;13.238;2023-12-20T09:20:06;6.24;87.37
6930;DHT22;3504;52.616;13.238;2023-12-20T09:25:12;6.19;87.02
6930;DHT22;3504;52.616;13.238;2023-12-20T09:30:14;6.11;87.38
6930;DHT22;3504;52.616;13.238;2023-12-20T09:35:14;6.19;87.75
6930;DHT22;3504;52.616;13.238;2023-12-20T09:40:18;6.16;87.86
6930;DHT22;3504;52.616;13.238;2023-12-20T09:45:20;6.14;87.53
6930;DHT22;3504;52.616;13.238;2023-12-20T09:50:22;6.14;87.31
6930;DHT22;3504;52.616;13.238;2023-12-20T09:55:25;6.16;87.28
6930;DHT22;3504;52.616;13.238;2023-12-20T10:00:25;6.14;87.09
6930;DHT22;3504;52.616;13.238;2023-12-20T10:05:31;6.17;87.33
6930;DHT22;3504;52.616;13.238;2023-12-20T10:10:32;6.19;86.96
6930;DHT22;3504;52.616;13.238;2023-12-20T10:15:34;6.23;86.85
6930;DHT22;3504;52.616;13.238;2023-12-20T10:20:36;6.21;86.69
6930;DHT22;3504;52.616;13.238;2023-12-20T10:25:37;6.21;86.67
6930;DHT22;3504;52.616;13.238;2023-12-20T10:30:42;6.23;86.81
6930;DHT22;3504;52.616;13.238;2023-12-20T10:35:43;6.27;87.10
6930;DHT22;3504;52.616;13.238;2023-12-20T10:40:45;6.34;87.27
6930;DHT22;3504;52.616;13.238;2023-12-20T10:45:46;6.31;86.80
6930;DHT22;3504;52.616;13.238;2023-12-20T10:50:49;6.34;86.68
6930;DHT22;3504;52.616;13.238;2023-12-20T10:55:52;6.31;86.71
6930;DHT22;3504;52.616;13.238;2023-12-20T11:01:00;6.37;86.27
6930;DHT22;3504;52.616;13.238;2023-12-20T11:06:35;6.42;86.19
6930;DHT22;3504;52.616;13.238;2023-12-20T11:17:09;6.45;86.25
6930;DHT22;3504;52.616;13.238;2023-12-20T11:22:09;6.45;86.16
6930;DHT22;3504;52.616;13.238;2023-12-20T11:27:13;6.45;86.81
6930;DHT22;3504;52.616;13.238;2023-12-20T11:37:30;6.42;86.89
6930;DHT22;3504;52.616;13.238;2023-12-20T11:42:39;6.44;86.97
6930;DHT22;3504;52.616;13.238;2023-12-20T11:47:46;6.48;86.75
6930;DHT22;3504;52.616;13.238;2023-12-20T11:52:52;6.60;87.22
6930;DHT22;3504;52.616;13.238;2023-12-20T11:57:53;6.68;86.27
6930;DHT22;3504;52.616;13.238;2023-12-20T12:03:00;6.74;86.14
6930;DHT22;3504;52.616;13.238;2023-12-20T12:08:03;6.72;85.56
6930;DHT22;3504;52.616;13.238;2023-12-20T12:13:05;6.70;86.07
6930;DHT22;3504;52.616;13.238;2023-12-20T12:18:06;6.67;86.77
6930;DHT22;3504;52.616;13.238;2023-12-20T12:23:07;6.57;86.60
6930;DHT22;3504;52.616;13.238;2023-12-20T12:28:07;6.51;87.34
6930;DHT22;3504;52.616;13.238;2023-12-20T12:33:08;6.45;87.79
6930;DHT22;3504;52.616;13.238;2023-12-20T12:38:08;6.40;88.06
6930;DHT22;3504;52.616;13.238;2023-12-20T12:43:09;6.40;88.49
6930;DHT22;3504;52.616;13.238;2023-12-20T12:48:09;6.34;88.60
6930;DHT22;3504;52.616;13.238;2023-12-20T12:53:10;6.37;88.78
6930;DHT22;3504;52.616;13.238;2023-12-20T12:58:11;6.31;88.92
6930;DHT22;3504;52.616;13.238;2023-12-20T13:03:12;6.31;88.97
6930;DHT22;3504;52.616;13.238;2023-12-20T13:08:13;6.24;88.59
6930;DHT22;3504;52.616;13.238;2023-12-20T13:13:14;6.21;88.55
6930;DHT22;3504;52.616;13.238;2023-12-20T13:18:14;6.14;88.27
6930;DHT22;3504;52.616;13.238;2023-12-20T13:23:15;6.13;88.12
6930;DHT22;3504;52.616;13.238;2023-12-20T13:28:18;6.10;87.73
6930;DHT22;3504;52.616;13.238;2023-12-20T13:33:18;6.10;87.35
6930;DHT22;3504;52.616;13.238;2023-12-20T13:38:19;6.13;86.85
6930;DHT22;3504;52.616;13.238;2023-12-20T13:43:19;6.16;87.12
6930;DHT22;3504;52.616;13.238;2023-12-20T13:48:21;6.14;86.62
6930;DHT22;3504;52.616;13.238;2023-12-20T13:53:23;5.99;86.29
6930;DHT22;3504;52.616;13.238;2023-12-20T13:58:23;5.96;85.33
6930;DHT22;3504;52.616;13.238;2023-12-20T14:03:24;5.93;85.61
6930;DHT22;3504;52.616;13.238;2023-12-20T14:08:24;5.85;85.02
6930;DHT22;3504;52.616;13.238;2023-12-20T14:13:25;5.78;84.69
6930;DHT22;3504;52.616;13.238;2023-12-20T14:18:26;5.76;85.12
6930;DHT22;3504;52.616;13.238;2023-12-20T14:23:26;5.75;84.24
6930;DHT22;3504;52.616;13.238;2023-12-20T14:28:27;5.69;84.26
6930;DHT22;3504;52.616;13.238;2023-12-20T14:33:27;5.68;84.10
6930;DHT22;3504;52.616;13.238;2023-12-20T14:38:27;5.58;84.01
6930;DHT22;3504;52.616;13.238;2023-12-20T14:43:28;5.52;84.21
6930;DHT22;3504;52.616;13.238;2023-12-20T14:48:29;5.45;84.20
6930;DHT22;3504;52.616;13.238;2023-12-20T14:53:29;5.47;84.35
6930;DHT22;3504;52.616;13.238;2023-12-20T14:58:30;5.48;84.46
6930;DHT22;3504;52.616;13.238;2023-12-20T15:03:31;5.47;84.55
6930;DHT22;3504;52.616;13.238;2023-12-20T15:08:32;5.48;84.62
6930;DHT22;3504;52.616;13.238;2023-12-20T15:13:32;5.49;84.60
6930;DHT22;3504;52.616;13.238;2023-12-20T15:18:33;5.47;85.22
6930;DHT22;3504;52.616;13.238;2023-12-20T15:23:34;5.37;85.38
6930;DHT22;3504;52.616;13.238;2023-12-20T15:28:34;5.32;85.57
6930;DHT22;3504;52.616;13.238;2023-12-20T15:33:35;5.25;85.30
6930;DHT22;3504;52.616;13.238;2023-12-20T15:38:36;5.18;85.35
6930;DHT22;3504;52.616;13.238;2023-12-20T15:43:36;5.13;85.50
6930;DHT22;3504;52.616;13.238;2023-12-20T15:48:37;5.08;85.79
6930;DHT22;3504;52.616;13.238;2023-12-20T15:53:38;5.04;85.58
6930;DHT22;3504;52.616;13.238;2023-12-20T15:58:44;4.99;85.72
6930;DHT22;3504;52.616;13.238;2023-12-20T16:03:45;4.96;85.92
6930;DHT22;3504;52.616;13.238;2023-12-20T16:08:45;4.94;86.00
6930;DHT22;3504;52.616;13.238;2023-12-20T16:13:46;4.89;85.96
6930;DHT22;3504;52.616;13.238;2023-12-20T16:18:47;4.92;85.47
6930;DHT22;3504;52.616;13.238;2023-12-20T16:23:48;4.87;85.32
6930;DHT22;3504;52.616;13.238;2023-12-20T16:28:49;4.89;85.27
6930;DHT22;3504;52.616;13.238;2023-12-20T16:33:50;4.87;85.36
6930;DHT22;3504;52.616;13.238;2023-12-20T16:38:50;4.86;85.39
6930;DHT22;3504;52.616;13.238;2023-12-20T16:43:51;4.82;85.56
6930;DHT22;3504;52.616;13.238;2023-12-20T16:48:51;4.79;85.63
6930;DHT22;3504;52.616;13.238;2023-12-20T16:53:52;4.79;85.66
6930;DHT22;3504;52.616;13.238;2023-12-20T16:58:55;4.83;85.48
6930;DHT22;3504;52.616;13.238;2023-12-20T17:03:55;4.80;85.61
6930;DHT22;3504;52.616;13.238;2023-12-20T17:08:59;4.83;85.46
6930;DHT22;3504;52.616;13.238;2023-12-20T17:13:59;4.82;85.60
6930;DHT22;3504;52.616;13.238;2023-12-20T17:19:00;4.80;85.71
6930;DHT22;3504;52.616;13.238;2023-12-20T17:24:02;4.80;85.90
6930;DHT22;3504;52.616;13.238;2023-12-20T17:29:03;4.82;86.04
6930;DHT22;3504;52.616;13.238;2023-12-20T17:34:03;4.80;86.33
6930;DHT22;3504;52.616;13.238;2023-12-20T17:39:07;4.82;86.43
6930;DHT22;3504;52.616;13.238;2023-12-20T17:44:08;4.84;86.51
6930;DHT22;3504;52.616;13.238;2023-12-20T17:49:09;4.89;86.61
6930;DHT22;3504;52.616;13.238;2023-12-20T17:54:09;4.90;86.71
6930;DHT22;3504;52.616;13.238;2023-12-20T17:59:10;4.96;86.72
6930;DHT22;3504;52.616;13.238;2023-12-20T18:04:10;5.00;86.63
6930;DHT22;3504;52.616;13.238;2023-12-20T18:09:11;5.03;86.53
6930;DHT22;3504;52.616;13.238;2023-12-20T18:14:11;5.08;86.45
6930;DHT22;3504;52.616;13.238;2023-12-20T18:19:12;5.11;86.27
6930;DHT22;3504;52.616;13.238;2023-12-20T18:24:13;5.16;86.10
6930;DHT22;3504;52.616;13.238;2023-12-20T18:29:21;5.16;85.83
6930;DHT22;3504;52.616;13.238;2023-12-20T18:34:21;5.16;85.61
6930;DHT22;3504;52.616;13.238;2023-12-20T18:39:24;5.17;85.44
6930;DHT22;3504;52.616;13.238;2023-12-20T18:44:24;5.21;85.28
6930;DHT22;3504;52.616;13.238;2023-12-20T18:49:25;5.24;85.08
6930;DHT22;3504;52.616;13.238;2023-12-20T18:54:26;5.25;85.05
6930;DHT22;3504;52.616;13.238;2023-12-20T18:59:26;5.30;85.02
6930;DHT22;3504;52.616;13.238;2023-12-20T19:04:28;5.31;84.95
6930;DHT22;3504;52.616;13.238;2023-12-20T19:09:28;5.34;85.76
6930;DHT22;3504;52.616;13.238;2023-12-20T19:14:30;5.34;86.09
6930;DHT22;3504;52.616;13.238;2023-12-20T19:19:32;5.30;86.18
6930;DHT22;3504;52.616;13.238;2023-12-20T19:24:32;5.32;86.01
6930;DHT22;3504;52.616;13.238;2023-12-20T19:29:33;5.32;85.91
6930;DHT22;3504;52.616;13.238;2023-12-20T19:34:33;5.34;85.84
6930;DHT22;3504;52.616;13.238;2023-12-20T19:39:34;5.35;85.65
6930;DHT22;3504;52.616;13.238;2023-12-20T19:44:35;5.37;85.54
6930;DHT22;3504;52.616;13.238;2023-12-20T19:49:36;5.34;85.44
6930;DHT22;3504;52.616;13.238;2023-12-20T19:54:37;5.35;85.33
6930;DHT22;3504;52.616;13.238;2023-12-20T19:59:37;5.38;85.05
6930;DHT22;3504;52.616;13.238;2023-12-20T20:04:38;5.38;84.91
6930;DHT22;3504;52.616;13.238;2023-12-20T20:09:38;5.37;84.36
6930;DHT22;3504;52.616;13.238;2023-12-20T20:14:39;5.35;84.42
6930;DHT22;3504;52.616;13.238;2023-12-20T20:19:40;5.34;84.40
6930;DHT22;3504;52.616;13.238;2023-12-20T20:24:41;5.34;84.41
6930;DHT22;3504;52.616;13.238;2023-12-20T20:29:41;5.31;84.35
6930;DHT22;3504;52.616;13.238;2023-12-20T20:34:43;5.30;84.13
6930;DHT22;3504;52.616;13.238;2023-12-20T20:39:44;5.31;84.23
6930;DHT22;3504;52.616;13.238;2023-12-20T20:44:44;5.27;84.31
6930;DHT22;3504;52.616;13.238;2023-12-20T20:49:45;5.28;84.76
6930;DHT22;3504;52.616;13.238;2023-12-20T20:54:46;5.24;84.66
6930;DHT22;3504;52.616;13.238;2023-12-20T20:59:46;5.23;84.97
6930;DHT22;3504;52.616;13.238;2023-12-20T21:04:47;5.20;85.08
6930;DHT22;3504;52.616;13.238;2023-12-20T21:09:51;5.18;85.15
6930;DHT22;3504;52.616;13.238;2023-12-20T21:14:52;5.20;85.40
6930;DHT22;3504;52.616;13.238;2023-12-20T21:19:52;5.16;85.77
6930;DHT22;3504;52.616;13.238;2023-12-20T21:24:53;5.11;86.22
6930;DHT22;3504;52.616;13.238;2023-12-20T21:29:53;5.07;86.45
6930;DHT22;3504;52.616;13.238;2023-12-20T21:34:54;5.08;86.66
6930;DHT22;3504;52.616;13.238;2023-12-20T21:39:54;5.03;87.16
6930;DHT22;3504;52.616;13.238;2023-12-20T21:44:55;4.99;87.40
6930;DHT22;3504;52.616;13.238;2023-12-20T21:49:55;4.97;87.65
6930;DHT22;3504;52.616;13.238;2023-12-20T21:54:56;4.94;87.77
6930;DHT22;3504;52.616;13.238;2023-12-20T21:59:57;4.94;87.72
6930;DHT22;3504;52.616;13.238;2023-12-20T22:04:58;4.94;87.93
6930;DHT22;3504;52.616;13.238;2023-12-20T22:09:59;4.89;88.18
6930;DHT22;3504;52.616;13.238;2023-12-20T22:15:00;4.89;88.35
6930;DHT22;3504;52.616;13.238;2023-12-20T22:20:00;4.89;88.46
6930;DHT22;3504;52.616;13.238;2023-12-20T22:25:01;4.86;88.54
6930;DHT22;3504;52.616;13.238;2023-12-20T22:30:03;4.83;88.62
6930;DHT22;3504;52.616;13.238;2023-12-20T22:35:07;4.80;88.88
6930;DHT22;3504;52.616;13.238;2023-12-20T22:40:08;4.76;88.59
6930;DHT22;3504;52.616;13.238;2023-12-20T22:45:10;4.69;88.46
6930;DHT22;3504;52.616;13.238;2023-12-20T22:50:10;4.68;88.68
6930;DHT22;3504;52.616;13.238;2023-12-20T22:55:11;4.72;88.76
6930;DHT22;3504;52.616;13.238;2023-12-20T23:00:12;4.68;88.76
6930;DHT22;3504;52.616;13.238;2023-12-20T23:05:17;4.71;88.76
6930;DHT22;3504;52.616;13.238;2023-12-20T23:10:17;4.71;88.96
6930;DHT22;3504;52.616;13.238;2023-12-20T23:15:23;4.76;89.08
6930;DHT22;3504;52.616;13.238;2023-12-20T23:20:23;4.80;88.90
6930;DHT22;3504;52.616;13.238;2023-12-20T23:25:23;4.72;89.16
6930;DHT22;3504;52.616;13.238;2023-12-20T23:30:24;4.69;89.44
6930;DHT22;3504;52.616;13.238;2023-12-20T23:35:25;4.66;89.92
6930;DHT22;3504;52.616;13.238;2023-12-20T23:40:26;4.66;90.09
6930;DHT22;3504;52.616;13.238;2023-12-20T23:45:26;4.68;90.09
6930;DHT22;3504;52.616;13.238;2023-12-20T23:50:27;4.68;90.23
6930;DHT22;3504;52.616;13.238;2023-12-20T23:55:27;4.68;90.58
